EGGD/BRS METAR and TAF weather

Enter ICAO airport designator
Station Type Date Time Source
EGGD METAR 2021/04/17 01:20 UTC NOAA

EGGD 170120Z AUTO 07004KT 9999 NCD 01/M04 Q1030


Station Type Date Time Source
EGGD Decoded METAR 2021/04/17 01:20 UTC NOAA

Bristol / Lulsgate , United Kingdom (EGGD) 51-23N 002-43W
Apr 16, 2021 - 09:20 PM EDT / 2021.04.17 0120 UTC
Wind: from the ENE (070 degrees) at 5 MPH (4 KT):0
Visibility: greater than 7 mile(s):0
Temperature: 33 F (1 C)
Windchill: 28 F (-2 C):1
Dew Point: 24 F (-4 C)
Relative Humidity: 69%
Pressure (altimeter): 30.42 in. Hg (1030 hPa)
ob: EGGD 170120Z AUTO 07004KT 9999 NCD 01/M04 Q1030
cycle: 1

Station Type Date Time Source
EGGD TAF 2021/04/16 18:09 UTC NOAA

TAF EGGD 161654Z 1618/1718 VRB04KT 9999 SCT045

Example: see airport list